Time;durP1;ratioP1;P1;durP2;ratioP2;P2;SDS_P1;SDS_P2;PMS_P1;PMS_P2;Temp;Humidity;BMP_temperature;BMP_pressure;BME280_temperature;BME280_humidity;BME280_pressure;Samples;Min_cycle;Max_cycle;Signal;HPM_P1;HPM_P2
2022/11/27 00:01:52;;;;;;;57.27;29.07;;;;;;;3.47;100.00;100325.95;4375954;80;21045;-89
2022/11/27 00:07:54;;;;;;;60.78;29.30;;;;;;;3.54;100.00;100326.94;4375671;79;21501;-88
2022/11/27 00:13:56;;;;;;;75.70;36.03;;;;;;;3.52;100.00;100327.23;4375325;80;21037;-88
2022/11/27 00:19:57;;;;;;;73.17;33.33;;;;;;;3.45;100.00;100328.15;4376559;79;21319;-88
2022/11/27 00:25:59;;;;;;;74.62;39.10;;;;;;;3.41;100.00;100317.67;4376912;79;21165;-89
2022/11/27 00:32:00;;;;;;;75.10;37.50;;;;;;;3.39;100.00;100325.81;4379888;79;21456;-89
2022/11/27 00:38:01;;;;;;;82.15;37.35;;;;;;;3.35;100.00;100323.45;4380679;79;21490;-87
2022/11/27 00:44:03;;;;;;;66.07;29.63;;;;;;;3.31;100.00;100322.42;4382299;79;21879;-88
2022/11/27 00:50:06;;;;;;;66.72;31.57;;;;;;;3.34;100.00;100320.48;4381100;79;21603;-88
2022/11/27 00:56:09;;;;;;;60.23;29.72;;;;;;;3.33;100.00;100319.69;4362922;80;21372;-89
2022/11/27 01:02:10;;;;;;;59.38;29.45;;;;;;;3.29;100.00;100321.36;4380777;79;21451;-88
2022/11/27 01:08:12;;;;;;;59.40;28.83;;;;;;;3.29;100.00;100319.23;4382012;80;21612;-88
2022/11/27 01:14:17;;;;;;;53.95;27.32;;;;;;;3.24;100.00;100312.78;4382102;79;20999;-89
2022/11/27 01:20:18;;;;;;;55.15;27.58;;;;;;;3.20;100.00;100317.19;4382227;79;20999;-89
2022/11/27 01:26:20;;;;;;;51.58;26.95;;;;;;;3.23;100.00;100317.70;4379978;79;21582;-88
2022/11/27 01:32:22;;;;;;;53.68;25.75;;;;;;;3.22;100.00;100316.89;4374993;80;21617;-87
2022/11/27 01:38:25;;;;;;;51.37;25.60;;;;;;;3.19;100.00;100315.56;4376828;80;20979;-88
2022/11/27 01:44:35;;;;;;;42.13;20.88;;;;;;;3.12;100.00;100309.73;4376872;79;20982;-88
2022/11/27 01:50:38;;;;;;;46.85;24.15;;;;;;;3.05;100.00;100303.88;4376729;79;21917;-88
2022/11/27 01:56:42;;;;;;;46.25;23.83;;;;;;;2.85;100.00;100306.10;4390088;79;21010;-87
2022/11/27 02:02:44;;;;;;;45.58;23.07;;;;;;;2.82;100.00;100303.95;4401135;79;21032;-87
2022/11/27 02:08:45;;;;;;;41.55;21.12;;;;;;;2.92;100.00;100322.22;4392050;79;21030;-88
2022/11/27 02:15:14;;;;;;;39.25;21.33;;;;;;;2.95;100.00;100316.22;4398146;79;21541;-88
2022/11/27 02:21:39;;;;;;;36.77;19.00;;;;;;;2.78;100.00;100302.95;4397959;79;21606;-88
2022/11/27 02:28:17;;;;;;;40.12;21.15;;;;;;;2.78;100.00;100315.92;4399383;79;21034;-89
2022/11/27 02:34:32;;;;;;;42.08;21.90;;;;;;;2.81;100.00;100319.94;4304979;81;21026;-88
2022/11/27 02:40:56;;;;;;;48.17;24.57;;;;;;;2.78;100.00;100325.39;4404111;80;21021;-89
2022/11/27 02:46:57;;;;;;;47.58;23.27;;;;;;;2.85;100.00;100316.92;4297268;80;21532;-89
2022/11/27 02:53:05;;;;;;;52.85;25.75;;;;;;;2.79;100.00;100331.05;4411377;79;21057;-88
2022/11/27 02:59:11;;;;;;;54.67;25.90;;;;;;;2.85;100.00;100326.39;4406571;79;20981;-89
2022/11/27 03:05:18;;;;;;;53.20;25.40;;;;;;;2.96;100.00;100339.45;4409838;79;21052;-88
2022/11/27 03:11:20;;;;;;;;;;;;;;;2.96;100.00;100339.45;4306534;80;21353;-89
2022/11/27 03:17:56;;;;;;;69.85;32.50;;;;;;;2.83;100.00;100331.27;4397103;80;20182;-88
2022/11/27 03:23:58;;;;;;;75.45;36.73;;;;;;;2.73;100.00;100340.86;4288798;81;21004;-88
2022/11/27 03:30:02;;;;;;;84.37;40.00;;;;;;;2.68;100.00;100331.46;4298230;81;21893;-88
2022/11/27 03:36:19;;;;;;;67.65;33.60;;;;;;;2.76;100.00;100337.04;4283328;81;21064;-89
2022/11/27 03:43:02;;;;;;;65.47;33.23;;;;;;;2.76;100.00;100337.04;4438399;78;21028;-88
2022/11/27 03:49:40;;;;;;;66.85;33.35;;;;;;;2.79;100.00;100336.99;4440991;79;22268;-88
2022/11/27 03:56:14;;;;;;;57.53;30.92;;;;;;;2.79;100.00;100339.16;4447530;79;21664;-88
2022/11/27 04:02:31;;;;;;;60.15;28.38;;;;;;;2.80;100.00;100341.33;4446254;78;21018;-90
2022/11/27 04:08:32;;;;;;;55.10;26.68;;;;;;;2.84;100.00;100338.28;4444635;79;21045;-89
2022/11/27 04:14:34;;;;;;;41.63;20.97;;;;;;;2.81;100.00;100334.81;4447733;79;21014;-88
2022/11/27 04:20:36;;;;;;;48.25;22.90;;;;;;;2.81;100.00;100338.33;4446767;78;21518;-88
2022/11/27 04:26:37;;;;;;;37.13;20.45;;;;;;;2.82;100.00;100347.22;4452886;78;21001;-89
2022/11/27 04:32:40;;;;;;;36.98;19.60;;;;;;;2.77;100.00;100346.75;4437602;78;21077;-89
2022/11/27 04:38:42;;;;;;;33.42;18.00;;;;;;;2.75;100.00;100354.91;4458966;78;21027;-88
2022/11/27 04:44:43;;;;;;;38.05;19.85;;;;;;;2.77;100.00;100346.75;4431096;78;22317;-87
2022/11/27 04:50:45;;;;;;;37.78;20.15;;;;;;;2.74;100.00;100351.95;4433212;78;20987;-88
2022/11/27 04:56:46;;;;;;;42.45;21.20;;;;;;;2.73;100.00;100344.92;4462377;77;21052;-89
2022/11/27 05:02:48;;;;;;;40.48;20.75;;;;;;;2.69;100.00;100336.58;4443542;78;21522;-88
2022/11/27 05:08:50;;;;;;;35.75;18.77;;;;;;;2.69;100.00;100339.85;4469962;78;21077;-88
2022/11/27 05:14:51;;;;;;;35.85;19.62;;;;;;;2.67;100.00;100338.79;4440788;78;21002;-88
2022/11/27 05:21:04;;;;;;;35.83;19.37;;;;;;;2.71;100.00;100338.45;4444585;78;21010;-89
2022/11/27 05:27:05;;;;;;;37.23;19.05;;;;;;;2.71;100.00;100337.67;4455320;77;20986;-88
2022/11/27 05:33:06;;;;;;;38.05;18.40;;;;;;;2.74;100.00;100337.09;4455908;78;21035;-88
2022/11/27 05:39:10;;;;;;;38.95;19.02;;;;;;;2.77;100.00;100352.73;4454821;78;20993;-89
2022/11/27 05:45:11;;;;;;;43.70;20.20;;;;;;;2.66;100.00;100353.95;4456305;78;20984;-89
2022/11/27 05:51:15;;;;;;;44.50;20.65;;;;;;;2.68;100.00;100353.09;4481018;78;20986;-88
2022/11/27 05:57:16;;;;;;;36.95;18.82;;;;;;;2.73;100.00;100355.20;4454882;78;21050;-88
2022/11/27 06:03:17;;;;;;;36.03;19.32;;;;;;;2.67;100.00;100350.95;4437122;78;20994;-89
2022/11/27 06:09:19;;;;;;;40.67;22.22;;;;;;;2.63;100.00;100356.67;4455025;78;21412;-88
2022/11/27 06:15:20;;;;;;;40.65;21.40;;;;;;;2.61;100.00;100352.66;4468203;78;21479;-88
2022/11/27 06:21:25;;;;;;;45.30;22.02;;;;;;;2.62;100.00;100342.09;4440998;78;20946;-88
2022/11/27 06:27:33;;;;;;;36.10;19.35;;;;;;;2.56;100.00;100345.95;4455721;78;20945;-88
2022/11/27 06:33:35;;;;;;;51.92;27.90;;;;;;;2.61;100.00;100353.47;4486839;78;20975;-88
2022/11/27 06:39:36;;;;;;;47.53;25.20;;;;;;;2.61;100.00;100342.66;4478829;77;20962;-87
2022/11/27 06:45:37;;;;;;;37.28;20.50;;;;;;;2.56;100.00;100337.84;4477385;78;21964;-88
2022/11/27 06:51:39;;;;;;;47.35;26.35;;;;;;;2.52;100.00;100338.19;4473310;78;20967;-88
2022/11/27 06:57:40;;;;;;;45.55;25.05;;;;;;;2.58;100.00;100339.72;4479323;78;21084;-87
2022/11/27 07:03:43;;;;;;;53.78;25.70;;;;;;;2.57;100.00;100332.72;4471139;78;21011;-88
2022/11/27 07:09:44;;;;;;;47.88;24.50;;;;;;;2.54;100.00;100335.97;4485434;78;21028;-88
2022/11/27 07:15:45;;;;;;;44.55;23.00;;;;;;;2.58;100.00;100332.97;4475659;78;20961;-88
2022/11/27 07:21:47;;;;;;;39.33;20.32;;;;;;;2.61;100.00;100333.20;4485849;78;21054;-88
2022/11/27 07:27:48;;;;;;;43.40;19.07;;;;;;;2.66;100.00;100343.14;4487740;77;20987;-88
2022/11/27 07:33:51;;;;;;;36.53;19.60;;;;;;;2.65;100.00;100338.27;4470192;78;21436;-88
2022/11/27 07:39:52;;;;;;;49.23;25.62;;;;;;;2.74;100.00;100346.55;4466640;78;20932;-88
2022/11/27 07:45:54;;;;;;;41.83;22.25;;;;;;;2.79;100.00;100338.34;4482029;78;21924;-88
2022/11/27 07:51:56;;;;;;;45.45;22.30;;;;;;;2.82;100.00;100333.16;4477795;78;20944;-88
2022/11/27 07:57:57;;;;;;;45.73;21.57;;;;;;;2.86;100.00;100327.98;4454620;78;21586;-88
2022/11/27 08:03:58;;;;;;;34.85;19.77;;;;;;;2.90;100.00;100335.22;4474915;78;21506;-88
2022/11/27 08:10:00;;;;;;;43.42;24.00;;;;;;;2.98;100.00;100348.09;4457655;78;21019;-88
2022/11/27 08:16:01;;;;;;;30.97;17.77;;;;;;;3.05;100.00;100353.92;4469108;78;21008;-88
2022/11/27 08:22:03;;;;;;;41.08;22.07;;;;;;;3.15;100.00;100352.97;4476535;77;20964;-87
2022/11/27 08:28:05;;;;;;;43.02;22.80;;;;;;;3.24;100.00;100342.55;4462161;78;21012;-90
2022/11/27 08:34:06;;;;;;;41.02;21.00;;;;;;;3.35;100.00;100330.22;4429001;80;21013;-88
2022/11/27 08:40:08;;;;;;;43.95;24.98;;;;;;;3.38;100.00;100330.98;4427685;78;21041;-88
2022/11/27 08:46:12;;;;;;;32.50;17.55;;;;;;;3.48;100.00;100337.59;4430867;78;20995;-87
2022/11/27 08:52:13;;;;;;;43.02;19.80;;;;;;;3.56;100.00;100337.71;4401113;78;20999;-89
2022/11/27 08:58:15;;;;;;;26.87;14.95;;;;;;;3.66;100.00;100329.42;4431123;80;21034;-88
2022/11/27 09:04:16;;;;;;;26.85;15.00;;;;;;;3.77;100.00;100332.75;4430573;79;21515;-87
2022/11/27 09:10:17;;;;;;;29.52;14.85;;;;;;;3.83;100.00;100331.56;4430582;79;20991;-88
2022/11/27 09:16:21;;;;;;;29.02;15.72;;;;;;;3.83;100.00;100335.63;4421245;80;21060;-88
2022/11/27 09:22:22;;;;;;;26.97;13.78;;;;;;;3.85;100.00;100328.01;4429921;78;21070;-87
2022/11/27 09:28:23;;;;;;;26.85;12.55;;;;;;;3.89;100.00;100333.06;4421538;79;21046;-87
2022/11/27 09:34:26;;;;;;;23.42;13.20;;;;;;;3.97;100.00;100335.09;4404802;80;21563;-88
2022/11/27 09:40:27;;;;;;;22.20;12.45;;;;;;;4.04;100.00;100343.64;4398344;80;21023;-87
2022/11/27 09:46:37;;;;;;;26.27;14.28;;;;;;;3.98;100.00;100339.39;4393105;80;20964;-87
2022/11/27 09:52:47;;;;;;;26.65;13.13;;;;;;;4.02;100.00;100333.11;4393024;79;21078;-88
2022/11/27 09:58:58;;;;;;;20.40;12.28;;;;;;;4.02;100.00;100325.52;4390734;79;21011;-88
2022/11/27 10:05:06;;;;;;;23.65;13.45;;;;;;;4.02;100.00;100330.94;4397893;79;20977;-88
2022/11/27 10:11:49;;;;;;;23.47;13.05;;;;;;;4.06;100.00;100326.52;4401056;80;21110;-88
2022/11/27 10:18:02;;;;;;;24.12;13.55;;;;;;;4.08;100.00;100317.54;4398559;79;21486;-88
2022/11/27 10:24:24;;;;;;;24.40;13.90;;;;;;;4.06;100.00;100311.61;4405417;79;22060;-87
2022/11/27 10:30:30;;;;;;;24.20;13.62;;;;;;;4.10;100.00;100306.64;4399671;79;21027;-88
2022/11/27 10:36:44;;;;;;;22.67;12.97;;;;;;;4.11;100.00;100300.68;4406710;79;21007;-88
2022/11/27 10:43:00;;;;;;;27.93;14.60;;;;;;;4.13;100.00;100295.77;4402809;80;20991;-87
2022/11/27 10:49:01;;;;;;;23.40;14.07;;;;;;;4.16;100.00;100296.52;4406120;79;21616;-88
2022/11/27 10:55:08;;;;;;;33.10;15.60;;;;;;;4.19;100.00;100281.02;4399680;80;20962;-88
2022/11/27 11:01:15;;;;;;;32.03;15.48;;;;;;;4.18;100.00;100284.27;4375100;80;21029;-87
2022/11/27 11:07:27;;;;;;;23.30;12.80;;;;;;;4.23;100.00;100281.45;4403652;80;21653;-89
2022/11/27 11:13:42;;;;;;;21.07;11.65;;;;;;;4.26;100.00;100278.14;4461253;78;20988;-88
2022/11/27 11:19:44;;;;;;;37.73;19.77;;;;;;;4.31;100.00;100267.73;4455116;78;21098;-88
2022/11/27 11:25:53;;;;;;;21.62;12.43;;;;;;;4.33;100.00;100254.16;4442417;78;21029;-89
2022/11/27 11:32:00;;;;;;;18.70;10.40;;;;;;;4.41;100.00;100248.56;4432685;78;21711;-88
2022/11/27 11:38:06;;;;;;;16.77;9.53;;;;;;;4.53;100.00;100240.70;4431277;78;21077;-88
2022/11/27 11:44:24;;;;;;;16.80;10.23;;;;;;;4.63;100.00;100237.22;4458698;78;21462;-88
2022/11/27 11:50:40;;;;;;;17.67;9.65;;;;;;;4.74;100.00;100241.86;4392892;79;21037;-88
2022/11/27 11:56:48;;;;;;;14.60;8.95;;;;;;;4.88;100.00;100245.87;4394590;80;21533;-87
2022/11/27 12:03:13;;;;;;;16.30;9.20;;;;;;;4.93;100.00;100244.39;4400676;79;21554;-88
2022/11/27 12:09:23;;;;;;;15.58;8.80;;;;;;;4.93;100.00;100245.75;4400090;79;21020;-88
2022/11/27 12:15:33;;;;;;;16.00;8.55;;;;;;;4.96;100.00;100240.52;4405114;79;21034;-89
2022/11/27 12:22:07;;;;;;;15.88;8.50;;;;;;;4.90;100.00;100234.97;4315007;80;21015;-88
2022/11/27 12:28:47;;;;;;;14.80;8.60;;;;;;;4.93;100.00;100224.05;4312992;80;21003;-89
2022/11/27 12:35:32;;;;;;;16.23;9.35;;;;;;;4.93;100.00;100215.36;4428932;78;21054;-89
2022/11/27 12:42:02;;;;;;;16.95;8.68;;;;;;;4.89;100.00;100214.36;4428209;78;21537;-88
2022/11/27 12:48:18;;;;;;;17.40;8.93;;;;;;;4.89;100.00;100217.07;4423934;79;21499;-88
2022/11/27 12:54:25;;;;;;;13.97;8.83;;;;;;;4.87;100.00;100215.78;4431083;78;21011;-88
2022/11/27 13:00:33;;;;;;;18.62;10.00;;;;;;;4.84;100.00;100216.64;4431407;79;20985;-88
2022/11/27 13:06:45;;;;;;;20.15;9.98;;;;;;;4.80;100.00;100212.14;4450906;78;21062;-88
2022/11/27 13:13:02;;;;;;;16.97;9.95;;;;;;;4.75;100.00;100205.47;4443177;78;21049;-88
2022/11/27 13:19:39;;;;;;;13.00;7.30;;;;;;;4.70;100.00;100205.58;4451163;77;21112;-88
2022/11/27 13:25:48;;;;;;;16.25;9.60;;;;;;;4.68;100.00;100197.75;4439413;78;22006;-88
2022/11/27 13:31:55;;;;;;;30.20;15.88;;;;;;;4.65;100.00;100201.08;4320467;80;21061;-89
2022/11/27 13:38:04;;;;;;;30.25;16.87;;;;;;;4.63;100.00;100203.87;4315294;81;21065;-89
2022/11/27 13:44:25;;;;;;;29.77;16.27;;;;;;;4.56;100.00;100201.58;4384786;80;21529;-88
2022/11/27 13:50:29;;;;;;;27.60;15.32;;;;;;;4.50;100.00;100204.16;4415132;80;21026;-89
2022/11/27 13:56:30;;;;;;;27.98;15.98;;;;;;;4.44;100.00;100199.96;4418707;79;21029;-89
2022/11/27 14:02:50;;;;;;;29.23;16.35;;;;;;;4.43;100.00;100194.84;4415765;79;21055;-90
2022/11/27 14:08:58;;;;;;;32.48;18.17;;;;;;;4.40;100.00;100196.81;4448414;78;21061;-88
2022/11/27 14:15:23;;;;;;;27.42;15.72;;;;;;;4.34;100.00;100183.91;4475084;78;21061;-88
2022/11/27 14:21:42;;;;;;;42.38;22.50;;;;;;;4.24;100.00;100186.86;4461134;78;21042;-89
2022/11/27 14:27:44;;;;;;;38.25;21.17;;;;;;;4.18;100.00;100189.98;4463363;78;20955;-88
2022/11/27 14:33:46;;;;;;;33.73;18.67;;;;;;;4.13;100.00;100198.21;4476163;77;20991;-89
2022/11/27 14:39:47;;;;;;;33.42;19.50;;;;;;;4.03;100.00;100198.41;4466278;77;21037;-89
2022/11/27 14:46:03;;;;;;;34.33;19.42;;;;;;;4.01;100.00;100197.94;4477154;77;21030;-89
2022/11/27 14:52:08;;;;;;;39.53;21.65;;;;;;;3.97;100.00;100184.18;4461833;77;21502;-88
2022/11/27 14:58:15;;;;;;;58.98;26.90;;;;;;;3.90;100.00;100182.42;4472572;77;21943;-88
2022/11/27 15:04:34;;;;;;;42.25;21.97;;;;;;;3.79;100.00;100175.60;4462382;77;21043;-88
2022/11/27 15:10:40;;;;;;;42.03;22.13;;;;;;;3.76;100.00;100172.14;4306664;81;21962;-88
2022/11/27 15:16:46;;;;;;;43.45;24.72;;;;;;;3.76;100.00;100175.42;4453673;77;21081;-88
2022/11/27 15:22:56;;;;;;;49.73;25.50;;;;;;;3.70;100.00;100172.00;4476185;77;21087;-88
2022/11/27 15:28:58;;;;;;;46.33;24.00;;;;;;;3.64;100.00;100166.98;4455527;77;21006;-88
2022/11/27 15:35:02;;;;;;;56.92;25.43;;;;;;;3.62;100.00;100173.27;4443579;77;20993;-88
2022/11/27 15:41:26;;;;;;;49.00;23.70;;;;;;;3.63;100.00;100171.61;4414979;78;20994;-87
2022/11/27 15:47:39;;;;;;;44.55;23.77;;;;;;;3.67;100.00;100166.37;4455896;78;21459;-88
2022/11/27 15:53:40;;;;;;;57.85;27.95;;;;;;;3.69;100.00;100162.28;4439661;78;21045;-88
2022/11/27 15:59:41;;;;;;;47.13;23.87;;;;;;;3.68;100.00;100163.94;4449478;78;21849;-88
2022/11/27 16:05:43;;;;;;;48.55;26.12;;;;;;;3.62;100.00;100161.87;4449357;78;21041;-89
2022/11/27 16:11:44;;;;;;;50.65;26.00;;;;;;;3.53;100.00;100160.97;4448194;78;22063;-88
2022/11/27 16:17:55;;;;;;;46.70;25.30;;;;;;;3.47;100.00;100163.53;4436237;78;21076;-87
2022/11/27 16:24:01;;;;;;;51.28;26.37;;;;;;;3.44;100.00;100161.42;4431091;78;21326;-88
2022/11/27 16:30:04;;;;;;;48.80;28.07;;;;;;;3.46;100.00;100156.48;4449447;77;21050;-87
2022/11/27 16:36:21;;;;;;;46.70;25.37;;;;;;;3.38;100.00;100147.73;4502095;77;20949;-84
2022/11/27 16:42:24;;;;;;;44.60;25.48;;;;;;;3.34;100.00;100141.84;4493748;77;21095;-88
2022/11/27 16:48:26;;;;;;;45.05;25.10;;;;;;;3.33;100.00;100140.25;4501405;77;20979;-88
2022/11/27 16:54:40;;;;;;;56.05;30.65;;;;;;;3.30;100.00;100138.95;4506075;77;21000;-88
2022/11/27 17:00:42;;;;;;;57.25;33.05;;;;;;;3.26;100.00;100137.94;4508022;77;20999;-88
2022/11/27 17:06:44;;;;;;;51.70;30.15;;;;;;;3.24;100.00;100130.11;4512408;77;21511;-85
2022/11/27 17:12:45;;;;;;;70.57;37.83;;;;;;;3.24;100.00;100130.11;4494249;77;20960;-88
2022/11/27 17:18:47;;;;;;;58.87;33.67;;;;;;;3.25;100.00;100136.34;4500609;77;21039;-87
2022/11/27 17:24:50;;;;;;;65.00;35.35;;;;;;;3.21;100.00;100129.94;4518780;77;21518;-87
2022/11/27 17:30:52;;;;;;;94.95;48.42;;;;;;;3.13;100.00;100118.45;4508137;77;21713;-88
2022/11/27 17:37:01;;;;;;;67.82;36.88;;;;;;;3.01;100.00;100116.75;4545464;77;20979;-87
2022/11/27 17:43:04;;;;;;;54.48;30.27;;;;;;;2.94;100.00;100115.00;4534715;77;20943;-86
2022/11/27 17:49:07;;;;;;;84.60;38.80;;;;;;;2.98;100.00;100111.94;4534366;77;21840;-87
2022/11/27 17:55:18;;;;;;;98.67;44.40;;;;;;;2.95;100.00;100105.23;4541123;77;20994;-87
2022/11/27 18:01:27;;;;;;;62.60;32.48;;;;;;;2.91;100.00;100092.61;4536602;77;20998;-86
2022/11/27 18:07:32;;;;;;;65.70;33.60;;;;;;;2.89;100.00;100085.34;4548830;77;21010;-86
2022/11/27 18:13:34;;;;;;;71.37;38.63;;;;;;;2.83;100.00;100076.53;4538361;77;21022;-86
2022/11/27 18:19:35;;;;;;;73.95;41.33;;;;;;;2.84;100.00;100077.31;4540276;77;21478;-87
2022/11/27 18:25:40;;;;;;;73.60;37.42;;;;;;;2.83;100.00;100073.83;4531381;77;20935;-87
2022/11/27 18:31:42;;;;;;;75.62;40.63;;;;;;;2.80;100.00;100055.46;4517005;77;21408;-86
2022/11/27 18:37:43;;;;;;;95.30;46.55;;;;;;;2.76;100.00;100040.95;4431102;78;21002;-86
2022/11/27 18:44:09;;;;;;;105.78;51.85;;;;;;;2.75;100.00;100046.12;4461942;78;21871;-86
2022/11/27 18:50:52;;;;;;;115.25;58.05;;;;;;;2.72;100.00;100049.42;4511355;78;21456;-86
2022/11/27 18:57:21;;;;;;;114.00;56.23;;;;;;;2.71;100.00;100032.92;4203159;83;21030;-85
2022/11/27 19:03:22;;;;;;;83.97;44.30;;;;;;;2.68;100.00;100042.17;4133879;85;21592;-87
2022/11/27 19:09:25;;;;;;;107.60;54.83;;;;;;;2.66;100.00;100043.04;4356631;79;21091;-86
2022/11/27 19:15:29;;;;;;;65.75;34.88;;;;;;;2.61;100.00;100049.88;4366418;80;21013;-88
2022/11/27 19:21:33;;;;;;;77.45;41.55;;;;;;;2.61;100.00;100061.51;4426214;79;21020;-87
2022/11/27 19:27:36;;;;;;;68.85;38.42;;;;;;;2.64;100.00;100057.39;4429580;79;21026;-87
2022/11/27 19:33:46;;;;;;;68.70;37.15;;;;;;;2.60;100.00;100054.48;4442552;79;21091;-86
2022/11/27 19:39:49;;;;;;;86.92;42.03;;;;;;;2.64;100.00;100054.16;4441979;79;21024;-86
2022/11/27 19:45:57;;;;;;;79.95;40.88;;;;;;;2.67;100.00;100044.63;4451526;79;21102;-87
2022/11/27 19:51:58;;;;;;;74.17;40.15;;;;;;;2.63;100.00;100034.17;4437642;79;21099;-87
2022/11/27 19:58:12;;;;;;;115.60;53.10;;;;;;;2.55;100.00;100028.88;4372758;80;21571;-86
2022/11/27 20:04:14;;;;;;;97.25;45.43;;;;;;;2.50;100.00;100033.59;4384852;80;21022;-87
2022/11/27 20:10:29;;;;;;;105.58;51.13;;;;;;;2.49;100.00;100018.48;4448427;79;21030;-86
2022/11/27 20:16:34;;;;;;;111.37;52.23;;;;;;;2.51;100.00;100010.31;4370017;80;20963;-86
2022/11/27 20:22:36;;;;;;;92.50;48.80;;;;;;;2.48;100.00;99996.05;4326842;80;21067;-87
2022/11/27 20:28:48;;;;;;;85.05;45.98;;;;;;;2.45;100.00;99983.13;4351541;80;21066;-87
2022/11/27 20:34:50;;;;;;;85.67;46.00;;;;;;;2.44;100.00;99990.19;4357515;80;21050;-86
2022/11/27 20:40:51;;;;;;;93.97;48.20;;;;;;;2.41;100.00;99985.37;4364100;80;21046;-87
2022/11/27 20:46:57;;;;;;;109.27;52.58;;;;;;;2.37;100.00;99974.36;4381387;80;21021;-86
2022/11/27 20:53:01;;;;;;;94.30;48.30;;;;;;;2.40;100.00;99979.16;4367016;79;20992;-86
2022/11/27 20:59:12;;;;;;;78.35;42.05;;;;;;;2.40;100.00;99977.81;4459247;78;21002;-86
2022/11/27 21:05:15;;;;;;;64.50;34.63;;;;;;;2.44;100.00;99969.38;4464977;78;21347;-86
2022/11/27 21:19:07;;;;;;;75.32;37.33;;;;;;;2.42;100.00;99971.57;4460635;78;21638;-86
2022/11/27 21:25:12;;;;;;;66.80;33.90;;;;;;;2.37;100.00;99963.55;4451648;78;21880;-87
2022/11/27 21:31:26;;;;;;;69.45;36.33;;;;;;;2.34;100.00;99966.84;4487438;78;21420;-86
2022/11/27 21:37:29;;;;;;;55.43;31.45;;;;;;;2.35;100.00;99963.03;4439324;78;21045;-87
2022/11/27 21:43:37;;;;;;;71.15;36.77;;;;;;;2.37;100.00;99964.89;4454949;78;20997;-86
2022/11/27 21:49:44;;;;;;;91.65;47.08;;;;;;;2.39;100.00;99965.41;4366617;81;21038;-87
2022/11/27 21:55:49;;;;;;;72.70;39.13;;;;;;;2.33;100.00;99965.25;4393789;78;20998;-88
2022/11/27 22:01:51;;;;;;;84.47;42.38;;;;;;;2.33;100.00;99960.39;4440285;78;21000;-86
2022/11/27 22:07:59;;;;;;;73.40;39.35;;;;;;;2.32;100.00;99959.58;4505889;78;20968;-86
2022/11/27 22:14:07;;;;;;;223.18;86.75;;;;;;;2.30;100.00;99944.20;4457423;77;21388;-87
2022/11/27 22:20:09;;;;;;;130.05;56.53;;;;;;;2.30;100.00;99952.88;4436080;78;21386;-86
2022/11/27 22:26:17;;;;;;;108.75;50.70;;;;;;;2.31;100.00;99946.37;4463770;78;20987;-87
2022/11/27 22:32:18;;;;;;;89.22;42.93;;;;;;;2.26;100.00;99939.16;4458909;78;21037;-87
2022/11/27 22:38:32;;;;;;;84.17;44.55;;;;;;;2.29;100.00;99939.91;4439594;78;21490;-86
2022/11/27 22:44:33;;;;;;;81.02;41.95;;;;;;;2.28;100.00;99930.75;4449684;78;20995;-86
2022/11/27 22:50:41;;;;;;;78.28;40.70;;;;;;;2.27;100.00;99918.36;4432410;78;21038;-87
2022/11/27 22:56:56;;;;;;;87.62;45.80;;;;;;;2.28;100.00;99904.55;4460834;78;21010;-86
2022/11/27 23:03:00;;;;;;;87.08;42.75;;;;;;;2.22;100.00;99900.34;4450429;78;21014;-87
2022/11/27 23:09:08;;;;;;;85.57;45.43;;;;;;;2.15;100.00;99882.90;4456494;78;21130;-87
2022/11/27 23:15:11;;;;;;;97.02;50.75;;;;;;;2.07;100.00;99874.16;4451993;78;20962;-86
2022/11/27 23:21:19;;;;;;;96.50;47.38;;;;;;;2.03;100.00;99875.84;4440422;78;21577;-87
2022/11/27 23:27:20;;;;;;;85.92;43.55;;;;;;;1.93;100.00;99874.69;4439034;78;21034;-87
2022/11/27 23:33:21;;;;;;;84.03;43.40;;;;;;;1.86;100.00;99870.20;4455573;78;21868;-87
2022/11/27 23:39:23;;;;;;;91.53;44.58;;;;;;;1.83;100.00;99870.26;4447903;78;21029;-86
2022/11/27 23:45:26;;;;;;;84.32;44.93;;;;;;;1.79;100.00;99870.58;4450258;78;21007;-87
2022/11/27 23:51:40;;;;;;;85.12;44.08;;;;;;;1.78;100.00;99870.87;4458603;78;21009;-86
2022/11/27 23:57:48;;;;;;;92.02;47.78;;;;;;;1.80;100.00;99864.64;4461635;78;20958;-87
